Погода Президенте Олегариона неделю

Минас-Жерайс, Бразилия

22 - 28 июля
  • 22июля
    Сегодня
    +14°
    +28°
    Ясно и безоблачно
    ВремяПогодаТемператураВлажностьДавлениеВетер, м/сВероятность осадков
    00:00Ясно и безоблачно+18°C47 %689 мм1.4 м/с5 %
    03:00Ясно и безоблачно+16°C50 %689 мм1.7 м/с5 %
    06:00Ясно и безоблачно+13°C64 %688 мм2.0 м/с5 %
    09:00Ясно и безоблачно+19°C48 %691 мм1.9 м/с5 %
    12:00Ясно и безоблачно+24°C33 %691 мм2.0 м/с5 %
    15:00Ясно и безоблачно+27°C29 %690 мм1.8 м/с5 %
    18:00Ясно и безоблачно+23°C40 %689 мм2.0 м/с5 %
    21:00Ясно и безоблачно+21°C46 %690 мм2.3 м/с5 %
  • 23июля
    Вторник
    +13°
    +28°
    Ясно и безоблачно
    ВремяПогодаТемператураВлажностьДавлениеВетер, м/сВероятность осадков
    00:00Ясно и безоблачно+17°C52 %689 мм2.0 м/с5 %
    03:00Ясно и безоблачно+16°C59 %688 мм2.2 м/с5 %
    06:00Ясно и безоблачно+15°C64 %689 мм1.9 м/с5 %
    09:00Ясно и безоблачно+20°C49 %691 мм2.2 м/с5 %
    12:00Ясно и безоблачно+25°C35 %691 мм2.5 м/с5 %
    15:00Ясно и безоблачно+28°C27 %690 мм2.9 м/с5 %
    18:00Ясно и безоблачно+24°C33 %690 мм2.4 м/с5 %
    21:00Ясно и безоблачно+21°C40 %690 мм2.4 м/с5 %
  • 24июля
    Среда
    +13°
    +28°
    Практически безоблачно
    ВремяПогодаТемператураВлажностьДавлениеВетер, м/сВероятность осадков
    00:00Ясно и безоблачно+19°C48 %690 мм2.9 м/с5 %
    03:00Ясно и безоблачно+16°C61 %689 мм2.5 м/с5 %
    06:00Ясно и безоблачно+14°C72 %689 мм2.3 м/с5 %
    09:00Ясно и безоблачно+19°C53 %692 мм3.0 м/с5 %
    12:00Практически безоблачно+25°C36 %692 мм2.7 м/с5 %
    15:00Практически безоблачно+27°C28 %690 мм2.3 м/с5 %
    18:00Практически безоблачно+24°C35 %690 мм2.3 м/с5 %
    21:00Практически безоблачно+21°C38 %691 мм2.8 м/с5 %
  • 25июля
    Четверг
    +14°
    +28°
    Ясно и безоблачно
    ВремяПогодаТемператураВлажностьДавлениеВетер, м/сВероятность осадков
    00:00Ясно и безоблачно+18°C47 %690 мм2.1 м/с5 %
    03:00Ясно и безоблачно+16°C58 %689 мм1.9 м/с5 %
    06:00Ясно и безоблачно+14°C65 %689 мм2.0 м/с5 %
    09:00Ясно и безоблачно+19°C48 %691 мм1.8 м/с5 %
    12:00Ясно и безоблачно+25°C31 %691 мм1.7 м/с5 %
    15:00Ясно и безоблачно+27°C25 %689 мм0.9 м/с5 %
    18:00Ясно и безоблачно+25°C31 %689 мм1.7 м/с5 %
    21:00Ясно и безоблачно+21°C39 %689 мм0.8 м/с5 %
Мы используем cookies
Соглашаюсь